A17 weather

Bremer Bay Airport
Bremer Bay, Western Australia, Australia

Public forecast

Using degrees Celsius for public forecast. Weather courtesy of forecast.io.

Closest aviation weather report (METAR) to Bremer Bay Airport

Closest report is Albany Airport, 82.4 nm (152.7 km) WSW. Retrieved 2020/02/20 13:00 UTC (49 minutes ago):

YABA 201300Z AUTO 08009KT 9999 // NCD 18/14 Q1021

Closest aviation forecast (TAF) to Bremer Bay Airport

Closest forecast is Perth Jandakot Airport, 220.9 nm (409.2 km) NW. Retrieved 2020/02/20 12:00 UTC (2 hours ago):

TAF YPJT 201043Z 2012/2106 09010KT CAVOK FM201700 08014G24KT CAVOK FM210100 07012KT CAVOK